Teanaway, Washington
Current Conditions -  °F | °C
As of 2:53 PM on Sunday 21 Dec 2014 (Local Time) from KELN Reporting Station
Clear Clear  
Wind Chill: 50°   Ceiling: Unl
Heat Index: 50°   Visibility: 10mi
Dew Point: 37°   Wind: 14mph
Humidity: 61%   Direction: 310°NW
Pressure: 29.92"   Gusts: NA
Location:  47.3367°N, 121.023°W
Report Text: KELN 212253Z AUTO 31012KT 10SM CLR 10/03 A2992 RMK AO2 PK WND 31028/2227 SLP138 T01000028
Loading
Personal Weather Stations






























Interactive Weather Map New forecast layout! Learn more

10-Day Weather Forecast

Advertisements
Track Severe Weather on mobile